createdAt,value
2017-09-02T00:00:36.265Z,12.20
2017-09-02T00:03:03.835Z,12.10
2017-09-02T00:05:31.286Z,12.20
2017-09-02T00:07:58.750Z,12.20
2017-09-02T00:10:26.200Z,12.20
2017-09-02T00:12:53.662Z,12.10
2017-09-02T00:15:21.122Z,12.10
2017-09-02T00:17:48.576Z,12.00
2017-09-02T00:20:16.038Z,12.00
2017-09-02T00:22:44.282Z,12.00
2017-09-02T00:25:11.739Z,12.00
2017-09-02T00:27:39.214Z,12.20
2017-09-02T00:30:06.661Z,12.10
2017-09-02T00:32:34.213Z,12.10
2017-09-02T00:35:01.686Z,12.10
2017-09-02T00:37:29.142Z,12.10
2017-09-02T00:39:56.689Z,12.10
2017-09-02T00:42:24.145Z,12.20
2017-09-02T00:44:51.604Z,12.30
2017-09-02T00:47:19.160Z,12.30
2017-09-02T00:49:46.621Z,12.30
2017-09-02T00:52:14.082Z,12.40
2017-09-02T00:54:41.550Z,12.60
2017-09-02T00:57:09.011Z,12.60
2017-09-02T00:59:36.495Z,12.70
2017-09-02T01:02:04.005Z,12.60
2017-09-02T01:04:31.475Z,12.50
2017-09-02T01:06:59.008Z,12.40
2017-09-02T01:09:26.487Z,12.30
2017-09-02T01:11:53.940Z,12.20
2017-09-02T01:14:21.396Z,12.30
2017-09-02T01:16:48.941Z,12.20
2017-09-02T01:19:16.398Z,12.10
2017-09-02T01:21:43.862Z,12.00
2017-09-02T01:24:11.416Z,12.00
2017-09-02T01:26:38.922Z,12.00
2017-09-02T01:29:06.379Z,12.10
2017-09-02T01:31:33.845Z,12.20
2017-09-02T01:34:01.315Z,12.10
2017-09-02T01:36:28.778Z,11.90
2017-09-02T01:38:56.239Z,11.80
2017-09-02T01:41:23.698Z,12.20
2017-09-02T01:43:51.162Z,12.10
2017-09-02T01:46:18.621Z,12.00
2017-09-02T01:48:46.086Z,12.00
2017-09-02T01:51:13.637Z,11.90
2017-09-02T01:53:41.097Z,11.80
2017-09-02T01:56:08.658Z,11.70
2017-09-02T01:58:36.113Z,11.70
2017-09-02T02:01:03.665Z,11.60
2017-09-02T02:03:31.129Z,11.60
2017-09-02T02:05:58.681Z,11.50
2017-09-02T02:08:26.169Z,11.40
2017-09-02T02:10:54.390Z,11.30
2017-09-02T02:13:21.846Z,11.30
2017-09-02T02:15:49.336Z,11.30
2017-09-02T02:18:16.781Z,11.50
2017-09-02T02:20:44.249Z,11.50
2017-09-02T02:23:11.701Z,11.50
2017-09-02T02:25:39.170Z,11.50
2017-09-02T02:28:06.714Z,11.50
2017-09-02T02:30:34.173Z,11.50
2017-09-02T02:33:01.634Z,11.60
2017-09-02T02:35:29.170Z,11.70
2017-09-02T02:37:56.650Z,11.70
2017-09-02T02:40:24.195Z,11.80
2017-09-02T02:42:51.662Z,11.70
2017-09-02T02:45:19.213Z,11.60
2017-09-02T02:47:46.669Z,11.40
2017-09-02T02:50:14.134Z,11.40
2017-09-02T02:52:41.590Z,11.40
2017-09-02T02:55:09.149Z,11.30
2017-09-02T02:57:36.605Z,11.30
2017-09-02T03:00:04.153Z,11.30
2017-09-02T03:02:31.622Z,11.40
2017-09-02T03:04:59.169Z,11.40
2017-09-02T03:07:26.633Z,11.30
2017-09-02T03:09:54.190Z,11.30
2017-09-02T03:12:21.662Z,11.30
2017-09-02T03:14:49.202Z,11.60
2017-09-02T03:17:16.758Z,11.80
2017-09-02T03:19:44.313Z,11.90
2017-09-02T03:22:11.794Z,11.80
2017-09-02T03:24:39.337Z,11.70
2017-09-02T03:27:06.892Z,11.60
2017-09-02T03:29:34.349Z,11.50
2017-09-02T03:32:01.838Z,11.40
2017-09-02T03:34:29.370Z,11.30
2017-09-02T03:36:56.922Z,11.30
2017-09-02T03:39:24.391Z,11.20
2017-09-02T03:41:51.846Z,11.20
2017-09-02T03:44:19.400Z,11.10
2017-09-02T03:46:46.845Z,11.10
2017-09-02T03:49:15.285Z,11.10
2017-09-02T03:51:45.455Z,11.00
2017-09-02T03:54:12.922Z,11.00
2017-09-02T03:56:40.465Z,10.90
2017-09-02T03:59:08.017Z,10.90
2017-09-02T04:01:35.470Z,11.00
2017-09-02T04:04:02.934Z,10.90
2017-09-02T04:06:30.395Z,11.00
2017-09-02T04:08:57.853Z,11.00
2017-09-02T04:11:25.321Z,11.00
2017-09-02T04:13:52.794Z,11.10
2017-09-02T04:16:20.250Z,11.00
2017-09-02T04:18:48.476Z,11.10
2017-09-02T04:21:15.941Z,11.10
2017-09-02T04:23:43.395Z,11.20
2017-09-02T04:26:10.953Z,11.10
2017-09-02T04:28:38.429Z,11.10
2017-09-02T04:31:05.889Z,11.00
2017-09-02T04:33:33.346Z,11.00
2017-09-02T04:36:00.890Z,11.00
2017-09-02T04:38:29.314Z,10.90
2017-09-02T04:40:56.858Z,10.80
2017-09-02T04:43:24.381Z,10.80
2017-09-02T04:45:51.854Z,10.80
2017-09-02T04:48:19.405Z,11.00
2017-09-02T04:50:46.962Z,11.10
2017-09-02T04:53:15.451Z,11.20
2017-09-02T04:55:42.913Z,11.30
2017-09-02T04:58:11.373Z,11.40
2017-09-02T05:00:38.938Z,11.40
2017-09-02T05:03:06.530Z,11.50
2017-09-02T05:05:33.986Z,11.60
2017-09-02T05:08:01.446Z,11.70
2017-09-02T05:10:28.897Z,11.80
2017-09-02T05:13:00.175Z,11.90
2017-09-02T05:15:27.737Z,12.10
2017-09-02T05:17:55.197Z,12.20
2017-09-02T05:20:24.521Z,12.30
2017-09-02T05:22:52.086Z,12.30
2017-09-02T05:25:21.514Z,12.50
2017-09-02T05:27:49.059Z,12.60
2017-09-02T05:30:16.519Z,12.70
2017-09-02T05:32:43.987Z,12.90
2017-09-02T05:35:12.204Z,12.40
2017-09-02T05:37:39.674Z,12.40
2017-09-02T05:40:07.143Z,12.30
2017-09-02T05:42:34.611Z,12.40
2017-09-02T05:45:02.066Z,12.30
2017-09-02T05:47:29.789Z,12.30
2017-09-02T05:49:57.301Z,12.30
2017-09-02T05:52:24.884Z,12.30
2017-09-02T05:54:52.403Z,12.30
2017-09-02T05:57:19.861Z,12.30
2017-09-02T05:59:47.334Z,12.40
2017-09-02T06:02:15.550Z,12.60
2017-09-02T06:04:43.062Z,12.60
2017-09-02T06:07:11.286Z,12.90
2017-09-02T06:09:39.756Z,12.90
2017-09-02T06:12:07.205Z,13.00
2017-09-02T06:14:34.672Z,13.10
2017-09-02T06:17:02.133Z,12.90
2017-09-02T06:19:30.598Z,12.90
2017-09-02T06:21:58.065Z,12.80
2017-09-02T06:24:25.569Z,12.70
2017-09-02T06:26:53.029Z,12.70
2017-09-02T06:29:20.486Z,12.70
2017-09-02T06:31:47.945Z,12.80
2017-09-02T06:34:15.441Z,12.40
2017-09-02T06:36:42.914Z,12.20
2017-09-02T06:39:11.953Z,12.20
2017-09-02T06:41:42.249Z,12.30
2017-09-02T06:44:11.129Z,12.30
2017-09-02T06:46:40.937Z,12.30
2017-09-02T06:49:08.385Z,12.40
2017-09-02T06:51:35.846Z,12.50
2017-09-02T06:54:03.306Z,12.60
2017-09-02T06:56:30.788Z,12.50
2017-09-02T06:58:58.436Z,12.80
2017-09-02T07:01:26.013Z,12.80
2017-09-02T07:03:53.878Z,13.00
2017-09-02T07:06:21.363Z,13.20
2017-09-02T07:08:50.018Z,13.40
2017-09-02T07:11:17.598Z,13.40
2017-09-02T07:13:45.273Z,13.50
2017-09-02T07:16:12.736Z,13.80
2017-09-02T07:18:40.518Z,13.80
2017-09-02T07:21:08.980Z,13.80
2017-09-02T07:23:36.433Z,13.70
2017-09-02T07:26:07.321Z,13.70
2017-09-02T07:28:34.811Z,13.90
2017-09-02T07:31:02.671Z,13.40
2017-09-02T07:33:30.149Z,13.30
2017-09-02T07:35:57.928Z,13.40
2017-09-02T07:38:25.387Z,13.50
2017-09-02T07:40:52.850Z,13.40
2017-09-02T07:43:20.338Z,13.20
2017-09-02T07:45:47.795Z,13.30
2017-09-02T07:48:15.341Z,13.30
2017-09-02T07:50:42.818Z,13.50
2017-09-02T07:53:10.270Z,13.60
2017-09-02T07:55:37.797Z,13.80
2017-09-02T07:58:05.258Z,14.10
2017-09-02T08:00:32.742Z,14.10
2017-09-02T08:03:00.206Z,13.70
2017-09-02T08:05:27.667Z,14.10
2017-09-02T08:07:55.131Z,14.40
2017-09-02T08:10:22.589Z,14.90
2017-09-02T08:12:50.057Z,15.10
2017-09-02T08:15:17.510Z,15.20
2017-09-02T08:17:44.973Z,15.30
2017-09-02T08:20:15.627Z,15.50
2017-09-02T08:22:43.709Z,15.50
2017-09-02T08:25:11.167Z,15.10
2017-09-02T08:27:38.754Z,15.30
2017-09-02T08:30:06.218Z,15.20
2017-09-02T08:32:33.695Z,15.20
2017-09-02T08:35:01.163Z,15.10
2017-09-02T08:37:28.620Z,15.30
2017-09-02T08:39:57.223Z,15.50
2017-09-02T08:42:24.667Z,15.30
2017-09-02T08:44:52.138Z,15.00
2017-09-02T08:47:20.937Z,15.00
2017-09-02T08:49:50.633Z,15.40
2017-09-02T08:52:18.079Z,15.70
2017-09-02T08:54:45.647Z,15.50
2017-09-02T08:57:13.102Z,14.90
2017-09-02T08:59:40.639Z,15.00
2017-09-02T09:02:08.099Z,15.30
2017-09-02T09:04:36.424Z,15.20
2017-09-02T09:07:03.873Z,15.10
2017-09-02T09:09:31.435Z,15.00
2017-09-02T09:11:58.888Z,15.10
2017-09-02T09:14:26.366Z,15.10
2017-09-02T09:16:53.818Z,15.30
2017-09-02T09:19:21.306Z,15.60
2017-09-02T09:21:48.819Z,15.90
2017-09-02T09:24:17.414Z,15.90
2017-09-02T09:26:44.965Z,15.80
2017-09-02T09:29:14.166Z,16.00
2017-09-02T09:31:43.723Z,16.40
2017-09-02T09:34:13.033Z,16.60
2017-09-02T09:36:40.588Z,16.30
2017-09-02T09:39:08.263Z,16.20
2017-09-02T09:41:37.860Z,16.20
2017-09-02T09:44:06.638Z,16.00
2017-09-02T09:46:34.333Z,16.10
2017-09-02T09:49:02.656Z,16.10
2017-09-02T09:51:30.989Z,15.80
2017-09-02T09:53:58.519Z,15.80
2017-09-02T09:56:25.986Z,16.00
2017-09-02T09:58:53.457Z,16.30
2017-09-02T10:01:20.914Z,16.70
2017-09-02T10:03:51.397Z,16.70
2017-09-02T10:08:51.914Z,16.50
2017-09-02T10:11:19.381Z,17.10
2017-09-02T10:13:47.906Z,17.30
2017-09-02T10:16:15.365Z,17.50
2017-09-02T10:18:42.835Z,17.80
2017-09-02T10:21:13.343Z,17.20
2017-09-02T10:23:41.882Z,17.30
2017-09-02T10:26:10.107Z,17.30
2017-09-02T10:28:37.675Z,17.30
2017-09-02T10:31:06.419Z,17.30
2017-09-02T10:33:33.884Z,17.10
2017-09-02T10:36:01.390Z,17.30
2017-09-02T10:38:28.861Z,17.40
2017-09-02T10:40:56.318Z,17.50
2017-09-02T10:43:23.776Z,17.60
2017-09-02T10:45:51.230Z,17.40
2017-09-02T10:48:18.767Z,17.10
2017-09-02T10:50:46.321Z,17.20
2017-09-02T10:53:13.882Z,17.10
2017-09-02T10:55:41.447Z,17.40
2017-09-02T10:58:08.899Z,18.00
2017-09-02T11:00:36.371Z,18.40
2017-09-02T11:03:03.818Z,18.80
2017-09-02T11:05:31.918Z,18.60
2017-09-02T11:07:59.374Z,18.90
2017-09-02T11:10:27.173Z,18.60
2017-09-02T11:12:55.877Z,18.50
2017-09-02T11:15:26.042Z,17.80
2017-09-02T11:17:53.502Z,17.80
2017-09-02T11:20:22.282Z,18.10
2017-09-02T11:22:50.648Z,18.00
2017-09-02T11:25:18.197Z,17.90
2017-09-02T11:27:45.654Z,17.90
2017-09-02T11:30:13.114Z,18.10
2017-09-02T11:32:40.660Z,18.00
2017-09-02T11:35:08.113Z,18.10
2017-09-02T11:37:35.684Z,18.20
2017-09-02T11:40:03.244Z,18.00
2017-09-02T11:42:35.593Z,18.10
2017-09-02T11:45:04.070Z,18.20
2017-09-02T11:47:31.950Z,18.10
2017-09-02T11:50:00.434Z,18.20
2017-09-02T11:52:29.082Z,18.00
2017-09-02T11:54:56.949Z,18.00
2017-09-02T11:57:24.718Z,18.20
2017-09-02T11:59:53.001Z,18.40
2017-09-02T12:02:20.483Z,18.40
2017-09-02T12:04:50.873Z,18.20
2017-09-02T12:07:18.353Z,18.30
2017-09-02T12:09:47.150Z,18.40
2017-09-02T12:12:15.007Z,18.30
2017-09-02T12:14:42.573Z,18.20
2017-09-02T12:17:10.024Z,18.20
2017-09-02T12:19:39.131Z,18.10
2017-09-02T12:22:06.610Z,18.20
2017-09-02T12:24:34.135Z,18.60
2017-09-02T12:27:01.586Z,19.00
2017-09-02T12:29:31.880Z,19.10
2017-09-02T12:31:59.329Z,19.00
2017-09-02T12:34:26.849Z,18.90
2017-09-02T12:36:54.311Z,18.60
2017-09-02T12:39:21.760Z,18.50
2017-09-02T12:41:49.228Z,18.50
2017-09-02T12:44:16.772Z,18.90
2017-09-02T12:46:44.246Z,19.20
2017-09-02T12:49:11.802Z,19.10
2017-09-02T12:51:39.304Z,19.00
2017-09-02T12:54:06.743Z,19.00
2017-09-02T12:56:34.215Z,19.10
2017-09-02T12:59:01.707Z,19.30
2017-09-02T13:01:30.087Z,19.40
2017-09-02T13:03:57.641Z,19.50
2017-09-02T13:06:25.107Z,19.20
2017-09-02T13:08:53.526Z,18.90
2017-09-02T13:11:21.074Z,19.20
2017-09-02T13:13:48.557Z,19.30
2017-09-02T13:16:16.008Z,19.30
2017-09-02T13:18:43.458Z,19.40
2017-09-02T13:21:10.934Z,19.20
2017-09-02T13:23:38.441Z,18.90
2017-09-02T13:26:07.410Z,18.70
2017-09-02T13:28:52.469Z,18.70
2017-09-02T13:31:19.947Z,18.70
2017-09-02T13:33:47.470Z,18.70
2017-09-02T13:36:14.937Z,18.60
2017-09-02T13:38:45.171Z,18.70
2017-09-02T13:41:12.646Z,19.00
2017-09-02T13:43:40.177Z,19.40
2017-09-02T13:46:08.649Z,19.60
2017-09-02T13:48:37.949Z,19.30
2017-09-02T13:51:05.486Z,19.10
2017-09-02T13:53:32.937Z,19.00
2017-09-02T13:56:00.386Z,19.00
2017-09-02T13:58:27.897Z,19.30
2017-09-02T14:00:55.454Z,19.60
2017-09-02T14:03:23.232Z,19.70
2017-09-02T14:05:50.779Z,19.70
2017-09-02T14:08:18.325Z,19.70
2017-09-02T14:10:45.779Z,19.70
2017-09-02T14:13:13.234Z,19.90
2017-09-02T14:15:40.996Z,19.70
2017-09-02T14:18:08.441Z,19.50
2017-09-02T14:20:35.898Z,19.60
2017-09-02T14:23:03.345Z,19.80
2017-09-02T14:25:30.822Z,19.70
2017-09-02T14:28:00.768Z,19.60
2017-09-02T14:30:29.027Z,19.00
2017-09-02T14:32:56.473Z,19.00
2017-09-02T14:35:27.080Z,19.00
2017-09-02T14:37:54.566Z,18.80
2017-09-02T14:40:22.021Z,18.70
2017-09-02T14:42:49.478Z,18.80
2017-09-02T14:45:16.942Z,18.80
2017-09-02T14:47:44.486Z,18.50
2017-09-02T14:50:11.942Z,18.50
2017-09-02T14:52:39.390Z,18.60
2017-09-02T14:55:06.859Z,18.80
2017-09-02T14:57:34.386Z,18.60
2017-09-02T15:00:01.870Z,18.60
2017-09-02T15:02:29.342Z,18.70
2017-09-02T15:04:56.890Z,18.70
2017-09-02T15:07:24.346Z,18.90
2017-09-02T15:09:51.805Z,18.80
2017-09-02T15:12:19.274Z,18.50
2017-09-02T15:14:47.476Z,18.70
2017-09-02T15:17:14.991Z,18.90
2017-09-02T15:19:42.441Z,18.70
2017-09-02T15:22:10.010Z,18.70
2017-09-02T15:24:37.466Z,18.50
2017-09-02T15:27:05.019Z,18.30
2017-09-02T15:29:32.573Z,18.40
2017-09-02T15:32:00.050Z,18.40
2017-09-02T15:34:27.589Z,18.70
2017-09-02T15:36:55.041Z,18.60
2017-09-02T15:39:22.515Z,18.70
2017-09-02T15:41:49.965Z,18.70
2017-09-02T15:44:17.428Z,18.20
2017-09-02T15:46:44.898Z,18.10
2017-09-02T15:49:12.358Z,17.70
2017-09-02T15:51:40.578Z,17.50
2017-09-02T15:54:08.062Z,17.50
2017-09-02T15:56:35.522Z,17.50
2017-09-02T15:59:02.982Z,17.40
2017-09-02T16:01:30.437Z,17.30
2017-09-02T16:03:57.897Z,17.10
2017-09-02T16:06:25.352Z,17.00
2017-09-02T16:08:52.818Z,17.00
2017-09-02T16:11:20.366Z,17.00
2017-09-02T16:13:47.918Z,16.80
2017-09-02T16:16:15.365Z,16.80
2017-09-02T16:18:42.819Z,16.80
2017-09-02T16:21:10.382Z,16.60
2017-09-02T16:23:37.839Z,16.60
2017-09-02T16:26:05.293Z,16.50
2017-09-02T16:28:32.752Z,16.40
2017-09-02T16:31:00.213Z,16.30
2017-09-02T16:33:27.670Z,16.40
2017-09-02T16:35:55.234Z,16.20
2017-09-02T16:38:22.790Z,16.10
2017-09-02T16:40:50.337Z,16.00
2017-09-02T16:43:17.904Z,15.90
2017-09-02T16:45:45.458Z,16.00
2017-09-02T16:48:12.905Z,16.00
2017-09-02T16:50:40.367Z,16.00
2017-09-02T16:53:07.814Z,15.90
2017-09-02T16:55:35.272Z,15.90
2017-09-02T16:58:02.715Z,15.80
2017-09-02T17:00:30.166Z,15.70
2017-09-02T17:02:57.629Z,15.60
2017-09-02T17:05:25.075Z,15.50
2017-09-02T17:07:52.522Z,15.50
2017-09-02T17:10:19.982Z,15.50
2017-09-02T17:12:47.433Z,15.50
2017-09-02T17:15:14.889Z,15.50
2017-09-02T17:17:42.333Z,15.40
2017-09-02T17:20:09.790Z,15.30
2017-09-02T17:22:37.242Z,15.30
2017-09-02T17:25:05.462Z,15.30
2017-09-02T17:27:32.913Z,15.30
2017-09-02T17:30:00.378Z,15.20
2017-09-02T17:32:27.822Z,15.10
2017-09-02T17:34:55.278Z,15.00
2017-09-02T17:37:22.759Z,14.90
2017-09-02T17:39:50.214Z,14.90
2017-09-02T17:42:17.669Z,14.90
2017-09-02T17:44:45.113Z,14.80
2017-09-02T17:47:12.569Z,14.80
2017-09-02T17:49:40.026Z,14.80
2017-09-02T17:52:07.496Z,14.70
2017-09-02T17:54:34.945Z,14.70
2017-09-02T17:57:02.401Z,14.60
2017-09-02T17:59:29.859Z,14.60
2017-09-02T18:01:57.321Z,14.50
2017-09-02T18:04:24.776Z,14.40
2017-09-02T18:06:52.235Z,14.40
2017-09-02T18:09:19.681Z,14.40
2017-09-02T18:11:47.153Z,14.30
2017-09-02T18:14:14.605Z,14.20
2017-09-02T18:16:42.054Z,14.20
2017-09-02T18:19:09.626Z,14.20
2017-09-02T18:21:37.078Z,14.10
2017-09-02T18:24:04.535Z,14.10
2017-09-02T18:26:31.988Z,14.10
2017-09-02T18:28:59.446Z,14.10
2017-09-02T18:31:27.007Z,14.00
2017-09-02T18:33:54.469Z,14.10
2017-09-02T18:36:21.914Z,14.00
2017-09-02T18:38:49.374Z,14.00
2017-09-02T18:41:17.748Z,14.00
2017-09-02T18:43:45.198Z,14.10
2017-09-02T18:46:12.649Z,14.10
2017-09-02T18:48:40.131Z,14.10
2017-09-02T18:51:10.361Z,14.10
2017-09-02T18:53:37.816Z,14.00
2017-09-02T18:56:05.282Z,14.10
2017-09-02T18:58:32.717Z,14.10
2017-09-02T19:01:00.185Z,14.10
2017-09-02T19:03:27.635Z,14.20
2017-09-02T19:05:55.104Z,14.10
2017-09-02T19:08:22.566Z,14.20
2017-09-02T19:10:50.055Z,14.20
2017-09-02T19:13:17.478Z,14.20
2017-09-02T19:15:46.719Z,14.10
2017-09-02T19:18:15.704Z,14.10
2017-09-02T19:20:43.237Z,14.00
2017-09-02T19:23:10.690Z,13.90
2017-09-02T19:25:38.217Z,13.90
2017-09-02T19:28:05.677Z,13.80
2017-09-02T19:30:33.809Z,13.80
2017-09-02T19:33:01.385Z,13.80
2017-09-02T19:35:28.849Z,13.80
2017-09-02T19:37:56.306Z,13.70
2017-09-02T19:40:27.260Z,13.70
2017-09-02T19:42:54.737Z,13.70
2017-09-02T19:45:22.184Z,13.70
2017-09-02T19:47:49.735Z,13.60
2017-09-02T19:50:17.303Z,13.50
2017-09-02T19:52:44.762Z,13.50
2017-09-02T19:55:15.064Z,13.50
2017-09-02T19:57:42.637Z,13.50
2017-09-02T20:00:10.147Z,13.30
2017-09-02T20:02:37.645Z,13.20
2017-09-02T20:05:07.545Z,13.20
2017-09-02T20:07:35.958Z,13.20
2017-09-02T20:10:03.461Z,13.20
2017-09-02T20:12:30.955Z,13.10
2017-09-02T20:15:03.449Z,13.10
2017-09-02T20:17:30.985Z,13.20
2017-09-02T20:20:01.418Z,13.20
2017-09-02T20:22:28.866Z,13.30
2017-09-02T20:24:56.335Z,13.30
2017-09-02T20:27:23.803Z,13.20
2017-09-02T20:29:51.296Z,13.30
2017-09-02T20:32:21.313Z,13.40
2017-09-02T20:34:48.806Z,13.30
2017-09-02T20:37:16.266Z,13.30
2017-09-02T20:39:43.734Z,13.30
2017-09-02T20:42:11.173Z,13.30
2017-09-02T20:44:38.650Z,13.30
2017-09-02T20:47:06.098Z,13.20
2017-09-02T20:49:33.642Z,13.30
2017-09-02T20:52:01.098Z,13.30
2017-09-02T20:54:29.347Z,13.40
2017-09-02T20:56:56.826Z,13.60
2017-09-02T20:59:25.781Z,13.60
2017-09-02T21:01:54.876Z,13.60
2017-09-02T21:04:23.318Z,13.50
2017-09-02T21:06:50.773Z,13.50
2017-09-02T21:09:18.238Z,13.40
2017-09-02T21:11:45.785Z,13.50
2017-09-02T21:14:13.330Z,13.50
2017-09-02T21:16:40.792Z,13.30
2017-09-02T21:19:08.370Z,13.30
2017-09-02T21:21:37.709Z,13.40
2017-09-02T21:24:05.958Z,13.60
2017-09-02T21:26:34.197Z,13.50
2017-09-02T21:29:01.679Z,13.50
2017-09-02T21:31:30.864Z,13.40
2017-09-02T21:33:59.067Z,13.40
2017-09-02T21:36:26.521Z,13.40
2017-09-02T21:38:54.034Z,13.30
2017-09-02T21:41:21.502Z,13.20
2017-09-02T21:43:49.042Z,13.30
2017-09-02T21:46:16.497Z,13.30
2017-09-02T21:48:43.972Z,13.30
2017-09-02T21:51:11.428Z,13.30
2017-09-02T21:53:38.890Z,13.50
2017-09-02T21:56:06.425Z,13.40
2017-09-02T21:58:33.898Z,13.40
2017-09-02T22:02:37.014Z,13.20
2017-09-02T22:05:04.545Z,13.10
2017-09-02T22:07:32.007Z,13.20
2017-09-02T22:09:59.483Z,13.20
2017-09-02T22:12:26.938Z,13.20
2017-09-02T22:14:56.178Z,13.00
2017-09-02T22:17:23.633Z,13.00
2017-09-02T22:19:51.117Z,13.00
2017-09-02T22:22:18.578Z,13.10
2017-09-02T22:24:46.038Z,13.30
2017-09-02T22:27:13.503Z,13.40
2017-09-02T22:29:40.963Z,13.40
2017-09-02T22:32:08.429Z,13.30
2017-09-02T22:34:36.679Z,13.30
2017-09-02T22:37:05.107Z,13.20
2017-09-02T22:39:32.580Z,13.10
2017-09-02T22:42:00.071Z,13.10
2017-09-02T22:44:27.558Z,13.10
2017-09-02T22:46:55.021Z,13.00
2017-09-02T22:49:22.542Z,13.00
2017-09-02T22:51:50.005Z,13.10
2017-09-02T22:54:17.458Z,13.20
2017-09-02T22:56:44.918Z,13.20
2017-09-02T22:59:12.377Z,13.20
2017-09-02T23:01:39.842Z,13.20
2017-09-02T23:04:07.390Z,13.30
2017-09-02T23:06:34.861Z,13.20
2017-09-02T23:09:02.325Z,13.00
2017-09-02T23:11:30.556Z,13.00
2017-09-02T23:13:58.014Z,13.00
2017-09-02T23:16:29.441Z,13.00
2017-09-02T23:18:57.242Z,13.00
2017-09-02T23:21:24.705Z,13.00
2017-09-02T23:23:53.178Z,12.80
2017-09-02T23:26:20.744Z,12.70
2017-09-02T23:28:48.189Z,12.70
2017-09-02T23:31:15.654Z,12.70
2017-09-02T23:33:43.119Z,12.90
2017-09-02T23:36:10.578Z,12.90
2017-09-02T23:38:38.037Z,12.90
2017-09-02T23:41:05.494Z,12.80
2017-09-02T23:43:32.955Z,12.70
2017-09-02T23:46:00.517Z,12.60
2017-09-02T23:48:27.970Z,12.60
2017-09-02T23:50:55.514Z,12.50
2017-09-02T23:53:23.061Z,12.50
2017-09-02T23:55:50.539Z,12.50
2017-09-02T23:58:18.671Z,12.40
